sensor_id;sensor_type;location;lat;lon;timestamp;P1;durP1;ratioP1;P2;durP2;ratioP2
42972;SDS011;28610;51.214;6.962;2023-05-10T00:00:16;26.77;;;12.60;;
42972;SDS011;28610;51.214;6.962;2023-05-10T00:03:02;29.63;;;13.30;;
42972;SDS011;28610;51.214;6.962;2023-05-10T00:05:48;21.73;;;12.03;;
42972;SDS011;28610;51.214;6.962;2023-05-10T00:08:34;24.00;;;12.03;;
42972;SDS011;28610;51.214;6.962;2023-05-10T00:11:19;28.03;;;12.83;;
42972;SDS011;28610;51.214;6.962;2023-05-10T00:14:06;22.60;;;12.33;;
42972;SDS011;28610;51.214;6.962;2023-05-10T00:16:52;23.37;;;12.90;;
42972;SDS011;28610;51.214;6.962;2023-05-10T00:19:37;27.87;;;13.50;;
42972;SDS011;28610;51.214;6.962;2023-05-10T00:22:23;31.93;;;13.77;;
42972;SDS011;28610;51.214;6.962;2023-05-10T00:25:08;25.90;;;12.97;;
42972;SDS011;28610;51.214;6.962;2023-05-10T00:27:54;24.63;;;12.33;;
42972;SDS011;28610;51.214;6.962;2023-05-10T00:30:42;28.57;;;13.70;;
42972;SDS011;28610;51.214;6.962;2023-05-10T00:33:27;36.77;;;14.87;;
42972;SDS011;28610;51.214;6.962;2023-05-10T00:36:13;27.60;;;14.03;;
42972;SDS011;28610;51.214;6.962;2023-05-10T00:38:59;30.20;;;14.87;;
42972;SDS011;28610;51.214;6.962;2023-05-10T00:41:44;29.53;;;15.33;;
42972;SDS011;28610;51.214;6.962;2023-05-10T00:44:30;35.57;;;15.23;;
42972;SDS011;28610;51.214;6.962;2023-05-10T00:47:16;36.27;;;15.37;;
42972;SDS011;28610;51.214;6.962;2023-05-10T00:50:02;35.63;;;16.07;;
42972;SDS011;28610;51.214;6.962;2023-05-10T00:52:49;28.53;;;14.67;;
42972;SDS011;28610;51.214;6.962;2023-05-10T00:55:35;37.47;;;16.57;;
42972;SDS011;28610;51.214;6.962;2023-05-10T00:58:21;34.20;;;14.90;;
42972;SDS011;28610;51.214;6.962;2023-05-10T01:01:11;30.53;;;14.77;;
42972;SDS011;28610;51.214;6.962;2023-05-10T01:03:59;29.40;;;14.77;;
42972;SDS011;28610;51.214;6.962;2023-05-10T01:06:45;30.73;;;15.37;;
42972;SDS011;28610;51.214;6.962;2023-05-10T01:09:31;27.80;;;14.00;;
42972;SDS011;28610;51.214;6.962;2023-05-10T01:12:16;35.20;;;15.63;;
42972;SDS011;28610;51.214;6.962;2023-05-10T01:15:02;29.27;;;14.43;;
42972;SDS011;28610;51.214;6.962;2023-05-10T01:17:48;31.67;;;14.97;;
42972;SDS011;28610;51.214;6.962;2023-05-10T01:20:38;22.20;;;11.67;;
42972;SDS011;28610;51.214;6.962;2023-05-10T01:23:30;22.37;;;11.77;;
42972;SDS011;28610;51.214;6.962;2023-05-10T01:26:34;23.93;;;11.57;;
42972;SDS011;28610;51.214;6.962;2023-05-10T01:29:28;23.50;;;11.30;;
42972;SDS011;28610;51.214;6.962;2023-05-10T01:32:17;22.33;;;11.63;;
42972;SDS011;28610;51.214;6.962;2023-05-10T01:35:07;25.47;;;12.03;;
42972;SDS011;28610;51.214;6.962;2023-05-10T01:37:57;21.47;;;11.47;;
42972;SDS011;28610;51.214;6.962;2023-05-10T01:40:48;26.87;;;12.23;;
42972;SDS011;28610;51.214;6.962;2023-05-10T01:43:37;28.47;;;12.57;;
42972;SDS011;28610;51.214;6.962;2023-05-10T01:46:27;22.97;;;12.00;;
42972;SDS011;28610;51.214;6.962;2023-05-10T01:49:16;22.13;;;11.70;;
42972;SDS011;28610;51.214;6.962;2023-05-10T01:52:04;21.60;;;11.27;;
42972;SDS011;28610;51.214;6.962;2023-05-10T01:54:53;22.80;;;11.00;;
42972;SDS011;28610;51.214;6.962;2023-05-10T01:57:39;24.80;;;11.93;;
42972;SDS011;28610;51.214;6.962;2023-05-10T02:00:26;24.53;;;11.97;;
42972;SDS011;28610;51.214;6.962;2023-05-10T02:03:12;23.73;;;11.50;;
42972;SDS011;28610;51.214;6.962;2023-05-10T02:06:00;21.10;;;11.83;;
42972;SDS011;28610;51.214;6.962;2023-05-10T02:08:46;22.17;;;12.47;;
42972;SDS011;28610;51.214;6.962;2023-05-10T02:11:33;20.03;;;11.87;;
42972;SDS011;28610;51.214;6.962;2023-05-10T02:14:18;20.87;;;12.10;;
42972;SDS011;28610;51.214;6.962;2023-05-10T02:17:05;30.90;;;14.03;;
42972;SDS011;28610;51.214;6.962;2023-05-10T02:19:52;25.00;;;13.00;;
42972;SDS011;28610;51.214;6.962;2023-05-10T02:22:39;22.17;;;12.23;;
42972;SDS011;28610;51.214;6.962;2023-05-10T02:25:25;22.17;;;11.77;;
42972;SDS011;28610;51.214;6.962;2023-05-10T02:28:12;21.57;;;11.57;;
42972;SDS011;28610;51.214;6.962;2023-05-10T02:30:58;23.33;;;11.77;;
42972;SDS011;28610;51.214;6.962;2023-05-10T02:33:44;22.20;;;11.87;;
42972;SDS011;28610;51.214;6.962;2023-05-10T02:36:31;19.03;;;10.63;;
42972;SDS011;28610;51.214;6.962;2023-05-10T02:39:19;22.93;;;11.03;;
42972;SDS011;28610;51.214;6.962;2023-05-10T02:42:04;21.73;;;11.03;;
42972;SDS011;28610;51.214;6.962;2023-05-10T02:44:51;20.10;;;10.47;;
42972;SDS011;28610;51.214;6.962;2023-05-10T02:47:38;21.13;;;11.13;;
42972;SDS011;28610;51.214;6.962;2023-05-10T02:50:25;18.90;;;11.20;;
42972;SDS011;28610;51.214;6.962;2023-05-10T02:53:11;21.10;;;11.13;;
42972;SDS011;28610;51.214;6.962;2023-05-10T02:56:04;23.10;;;12.50;;
42972;SDS011;28610;51.214;6.962;2023-05-10T02:58:51;27.23;;;13.40;;
42972;SDS011;28610;51.214;6.962;2023-05-10T03:01:37;25.30;;;13.33;;
42972;SDS011;28610;51.214;6.962;2023-05-10T03:04:23;29.47;;;13.57;;
42972;SDS011;28610;51.214;6.962;2023-05-10T03:07:08;25.33;;;12.67;;
42972;SDS011;28610;51.214;6.962;2023-05-10T03:09:54;32.77;;;14.03;;
42972;SDS011;28610;51.214;6.962;2023-05-10T03:12:45;23.40;;;12.90;;
42972;SDS011;28610;51.214;6.962;2023-05-10T03:15:34;32.83;;;14.67;;
42972;SDS011;28610;51.214;6.962;2023-05-10T03:18:27;23.67;;;12.93;;
42972;SDS011;28610;51.214;6.962;2023-05-10T03:21:14;26.40;;;13.37;;
42972;SDS011;28610;51.214;6.962;2023-05-10T03:24:02;27.77;;;13.73;;
42972;SDS011;28610;51.214;6.962;2023-05-10T03:26:50;28.37;;;13.70;;
42972;SDS011;28610;51.214;6.962;2023-05-10T03:29:39;29.27;;;14.47;;
42972;SDS011;28610;51.214;6.962;2023-05-10T03:32:25;34.90;;;15.63;;
42972;SDS011;28610;51.214;6.962;2023-05-10T03:35:12;30.47;;;15.33;;
42972;SDS011;28610;51.214;6.962;2023-05-10T03:37:57;32.60;;;15.10;;
42972;SDS011;28610;51.214;6.962;2023-05-10T03:40:43;35.57;;;15.87;;
42972;SDS011;28610;51.214;6.962;2023-05-10T03:43:29;31.17;;;15.53;;
42972;SDS011;28610;51.214;6.962;2023-05-10T03:46:16;35.07;;;16.37;;
42972;SDS011;28610;51.214;6.962;2023-05-10T03:49:02;28.20;;;14.77;;
42972;SDS011;28610;51.214;6.962;2023-05-10T03:51:48;29.30;;;14.97;;
42972;SDS011;28610;51.214;6.962;2023-05-10T03:54:33;31.53;;;15.63;;
42972;SDS011;28610;51.214;6.962;2023-05-10T03:57:19;40.30;;;16.17;;
42972;SDS011;28610;51.214;6.962;2023-05-10T04:00:05;38.17;;;17.47;;
42972;SDS011;28610;51.214;6.962;2023-05-10T04:02:52;34.97;;;16.00;;
42972;SDS011;28610;51.214;6.962;2023-05-10T04:05:38;44.70;;;17.93;;
42972;SDS011;28610;51.214;6.962;2023-05-10T04:08:23;46.93;;;18.80;;
42972;SDS011;28610;51.214;6.962;2023-05-10T04:11:10;35.70;;;17.17;;
42972;SDS011;28610;51.214;6.962;2023-05-10T04:13:56;39.27;;;18.13;;
42972;SDS011;28610;51.214;6.962;2023-05-10T04:16:42;47.23;;;18.93;;
42972;SDS011;28610;51.214;6.962;2023-05-10T04:19:30;45.13;;;19.17;;
42972;SDS011;28610;51.214;6.962;2023-05-10T04:22:15;41.67;;;17.57;;
42972;SDS011;28610;51.214;6.962;2023-05-10T04:25:01;50.67;;;18.70;;
42972;SDS011;28610;51.214;6.962;2023-05-10T04:27:47;35.60;;;17.00;;
42972;SDS011;28610;51.214;6.962;2023-05-10T04:30:32;36.87;;;17.13;;
42972;SDS011;28610;51.214;6.962;2023-05-10T04:33:18;39.33;;;17.27;;
42972;SDS011;28610;51.214;6.962;2023-05-10T04:36:05;37.50;;;17.43;;
42972;SDS011;28610;51.214;6.962;2023-05-10T04:38:51;44.23;;;18.63;;
42972;SDS011;28610;51.214;6.962;2023-05-10T04:41:37;34.53;;;16.50;;
42972;SDS011;28610;51.214;6.962;2023-05-10T04:44:23;47.83;;;18.80;;
42972;SDS011;28610;51.214;6.962;2023-05-10T04:47:08;46.10;;;19.17;;
42972;SDS011;28610;51.214;6.962;2023-05-10T04:49:55;47.87;;;20.70;;
42972;SDS011;28610;51.214;6.962;2023-05-10T04:52:43;39.60;;;20.13;;
42972;SDS011;28610;51.214;6.962;2023-05-10T04:55:29;55.40;;;22.10;;
42972;SDS011;28610;51.214;6.962;2023-05-10T04:58:15;43.90;;;20.30;;
42972;SDS011;28610;51.214;6.962;2023-05-10T05:01:07;45.63;;;20.73;;
42972;SDS011;28610;51.214;6.962;2023-05-10T05:03:54;47.53;;;20.17;;
42972;SDS011;28610;51.214;6.962;2023-05-10T05:06:39;49.97;;;22.17;;
42972;SDS011;28610;51.214;6.962;2023-05-10T05:09:26;55.10;;;22.67;;
42972;SDS011;28610;51.214;6.962;2023-05-10T05:12:12;50.20;;;21.33;;
42972;SDS011;28610;51.214;6.962;2023-05-10T05:14:58;55.63;;;23.43;;
42972;SDS011;28610;51.214;6.962;2023-05-10T05:17:43;54.40;;;23.43;;
42972;SDS011;28610;51.214;6.962;2023-05-10T05:20:31;53.43;;;23.33;;
42972;SDS011;28610;51.214;6.962;2023-05-10T05:23:17;54.60;;;23.53;;
42972;SDS011;28610;51.214;6.962;2023-05-10T05:26:05;59.67;;;23.60;;
42972;SDS011;28610;51.214;6.962;2023-05-10T05:28:51;54.67;;;23.50;;
42972;SDS011;28610;51.214;6.962;2023-05-10T05:31:38;57.50;;;24.70;;
42972;SDS011;28610;51.214;6.962;2023-05-10T05:34:23;67.90;;;26.07;;
42972;SDS011;28610;51.214;6.962;2023-05-10T05:37:12;57.17;;;24.30;;
42972;SDS011;28610;51.214;6.962;2023-05-10T05:39:57;55.30;;;23.97;;
42972;SDS011;28610;51.214;6.962;2023-05-10T05:42:46;54.47;;;24.13;;
42972;SDS011;28610;51.214;6.962;2023-05-10T05:45:32;53.20;;;24.60;;
42972;SDS011;28610;51.214;6.962;2023-05-10T05:48:17;58.27;;;24.00;;
42972;SDS011;28610;51.214;6.962;2023-05-10T05:51:03;66.30;;;26.17;;
42972;SDS011;28610;51.214;6.962;2023-05-10T05:53:48;63.57;;;26.87;;
42972;SDS011;28610;51.214;6.962;2023-05-10T05:56:34;58.83;;;24.90;;
42972;SDS011;28610;51.214;6.962;2023-05-10T05:59:20;46.77;;;23.77;;
42972;SDS011;28610;51.214;6.962;2023-05-10T06:02:06;48.73;;;23.57;;
42972;SDS011;28610;51.214;6.962;2023-05-10T06:04:52;54.77;;;23.50;;
42972;SDS011;28610;51.214;6.962;2023-05-10T06:07:37;45.13;;;22.03;;
42972;SDS011;28610;51.214;6.962;2023-05-10T06:10:25;48.60;;;23.60;;
42972;SDS011;28610;51.214;6.962;2023-05-10T06:13:11;43.13;;;21.60;;
42972;SDS011;28610;51.214;6.962;2023-05-10T06:15:58;45.23;;;22.03;;
42972;SDS011;28610;51.214;6.962;2023-05-10T06:18:44;48.00;;;22.10;;
42972;SDS011;28610;51.214;6.962;2023-05-10T06:21:30;50.77;;;23.77;;
42972;SDS011;28610;51.214;6.962;2023-05-10T06:24:15;49.27;;;22.97;;
42972;SDS011;28610;51.214;6.962;2023-05-10T06:27:01;45.03;;;21.77;;
42972;SDS011;28610;51.214;6.962;2023-05-10T06:29:47;48.40;;;22.27;;
42972;SDS011;28610;51.214;6.962;2023-05-10T06:32:34;47.37;;;21.77;;
42972;SDS011;28610;51.214;6.962;2023-05-10T06:35:20;45.53;;;20.70;;
42972;SDS011;28610;51.214;6.962;2023-05-10T06:38:06;43.43;;;20.70;;
42972;SDS011;28610;51.214;6.962;2023-05-10T06:40:52;41.10;;;20.17;;
42972;SDS011;28610;51.214;6.962;2023-05-10T06:43:37;49.27;;;22.20;;
42972;SDS011;28610;51.214;6.962;2023-05-10T06:46:24;42.67;;;20.17;;
42972;SDS011;28610;51.214;6.962;2023-05-10T06:49:12;44.77;;;20.60;;
42972;SDS011;28610;51.214;6.962;2023-05-10T06:51:57;55.17;;;21.77;;
42972;SDS011;28610;51.214;6.962;2023-05-10T06:54:43;47.57;;;21.47;;
42972;SDS011;28610;51.214;6.962;2023-05-10T06:57:29;48.23;;;21.23;;
42972;SDS011;28610;51.214;6.962;2023-05-10T07:00:15;41.93;;;18.97;;
42972;SDS011;28610;51.214;6.962;2023-05-10T07:03:01;44.97;;;20.13;;
42972;SDS011;28610;51.214;6.962;2023-05-10T07:05:48;38.60;;;19.37;;
42972;SDS011;28610;51.214;6.962;2023-05-10T07:08:34;43.20;;;19.33;;
42972;SDS011;28610;51.214;6.962;2023-05-10T07:11:20;47.07;;;19.43;;
42972;SDS011;28610;51.214;6.962;2023-05-10T07:14:05;53.60;;;21.23;;
42972;SDS011;28610;51.214;6.962;2023-05-10T07:16:51;45.87;;;19.83;;
42972;SDS011;28610;51.214;6.962;2023-05-10T07:19:36;49.13;;;20.40;;
42972;SDS011;28610;51.214;6.962;2023-05-10T07:22:23;47.30;;;20.60;;
42972;SDS011;28610;51.214;6.962;2023-05-10T07:25:09;48.77;;;20.33;;
42972;SDS011;28610;51.214;6.962;2023-05-10T07:27:55;58.70;;;21.40;;
42972;SDS011;28610;51.214;6.962;2023-05-10T07:30:41;45.47;;;19.43;;
42972;SDS011;28610;51.214;6.962;2023-05-10T07:33:26;54.00;;;21.43;;
42972;SDS011;28610;51.214;6.962;2023-05-10T07:36:12;70.50;;;22.40;;
42972;SDS011;28610;51.214;6.962;2023-05-10T07:38:59;61.97;;;22.67;;
42972;SDS011;28610;51.214;6.962;2023-05-10T07:41:45;65.33;;;21.83;;
42972;SDS011;28610;51.214;6.962;2023-05-10T07:44:31;64.30;;;23.07;;
42972;SDS011;28610;51.214;6.962;2023-05-10T07:47:16;67.67;;;22.90;;
42972;SDS011;28610;51.214;6.962;2023-05-10T07:50:02;63.93;;;22.87;;
42972;SDS011;28610;51.214;6.962;2023-05-10T07:52:48;60.20;;;21.87;;
42972;SDS011;28610;51.214;6.962;2023-05-10T07:55:35;58.53;;;21.83;;
42972;SDS011;28610;51.214;6.962;2023-05-10T07:58:21;58.10;;;22.20;;
42972;SDS011;28610;51.214;6.962;2023-05-10T08:01:06;54.70;;;21.33;;
42972;SDS011;28610;51.214;6.962;2023-05-10T08:03:53;42.87;;;19.07;;
42972;SDS011;28610;51.214;6.962;2023-05-10T08:06:39;42.60;;;18.33;;
42972;SDS011;28610;51.214;6.962;2023-05-10T08:09:24;46.33;;;20.07;;
42972;SDS011;28610;51.214;6.962;2023-05-10T08:12:11;47.80;;;19.73;;
42972;SDS011;28610;51.214;6.962;2023-05-10T08:14:57;46.90;;;18.30;;
42972;SDS011;28610;51.214;6.962;2023-05-10T08:17:42;42.23;;;17.30;;
42972;SDS011;28610;51.214;6.962;2023-05-10T08:20:28;42.60;;;18.17;;
42972;SDS011;28610;51.214;6.962;2023-05-10T08:23:13;37.77;;;16.07;;
42972;SDS011;28610;51.214;6.962;2023-05-10T08:25:59;42.80;;;16.77;;
42972;SDS011;28610;51.214;6.962;2023-05-10T08:28:46;45.53;;;19.47;;
42972;SDS011;28610;51.214;6.962;2023-05-10T08:31:32;45.93;;;21.23;;
42972;SDS011;28610;51.214;6.962;2023-05-10T08:34:17;52.57;;;22.67;;
42972;SDS011;28610;51.214;6.962;2023-05-10T08:37:03;53.53;;;23.43;;
42972;SDS011;28610;51.214;6.962;2023-05-10T08:39:49;51.27;;;23.27;;
42972;SDS011;28610;51.214;6.962;2023-05-10T08:42:34;56.33;;;24.77;;
42972;SDS011;28610;51.214;6.962;2023-05-10T08:45:23;55.37;;;23.57;;
42972;SDS011;28610;51.214;6.962;2023-05-10T08:48:09;54.33;;;22.97;;
42972;SDS011;28610;51.214;6.962;2023-05-10T08:50:55;54.67;;;23.73;;
42972;SDS011;28610;51.214;6.962;2023-05-10T08:53:42;54.83;;;24.10;;
42972;SDS011;28610;51.214;6.962;2023-05-10T08:56:28;63.97;;;26.50;;
42972;SDS011;28610;51.214;6.962;2023-05-10T08:59:13;63.50;;;26.17;;
42972;SDS011;28610;51.214;6.962;2023-05-10T09:02:01;61.83;;;25.67;;
42972;SDS011;28610;51.214;6.962;2023-05-10T09:04:47;64.17;;;25.30;;
42972;SDS011;28610;51.214;6.962;2023-05-10T09:07:33;63.83;;;27.37;;
42972;SDS011;28610;51.214;6.962;2023-05-10T09:10:19;66.80;;;27.93;;
42972;SDS011;28610;51.214;6.962;2023-05-10T09:13:05;59.47;;;26.53;;
42972;SDS011;28610;51.214;6.962;2023-05-10T09:15:51;62.30;;;26.93;;
42972;SDS011;28610;51.214;6.962;2023-05-10T09:18:39;61.67;;;27.53;;
42972;SDS011;28610;51.214;6.962;2023-05-10T09:21:25;59.57;;;26.13;;
42972;SDS011;28610;51.214;6.962;2023-05-10T09:24:11;61.83;;;27.00;;
42972;SDS011;28610;51.214;6.962;2023-05-10T09:26:57;69.17;;;29.17;;
42972;SDS011;28610;51.214;6.962;2023-05-10T09:29:43;68.23;;;28.07;;
42972;SDS011;28610;51.214;6.962;2023-05-10T09:32:36;67.90;;;27.67;;
42972;SDS011;28610;51.214;6.962;2023-05-10T09:35:24;64.53;;;27.20;;
42972;SDS011;28610;51.214;6.962;2023-05-10T09:38:10;58.37;;;26.13;;
42972;SDS011;28610;51.214;6.962;2023-05-10T09:40:55;65.17;;;26.23;;
42972;SDS011;28610;51.214;6.962;2023-05-10T09:43:41;57.47;;;25.03;;
42972;SDS011;28610;51.214;6.962;2023-05-10T09:46:26;52.33;;;23.43;;
42972;SDS011;28610;51.214;6.962;2023-05-10T09:49:14;58.37;;;24.97;;
42972;SDS011;28610;51.214;6.962;2023-05-10T09:52:01;56.17;;;24.13;;
42972;SDS011;28610;51.214;6.962;2023-05-10T09:54:52;50.50;;;23.47;;
42972;SDS011;28610;51.214;6.962;2023-05-10T09:57:38;50.50;;;23.30;;
42972;SDS011;28610;51.214;6.962;2023-05-10T10:00:24;43.50;;;21.60;;
42972;SDS011;28610;51.214;6.962;2023-05-10T10:03:12;47.33;;;22.33;;
42972;SDS011;28610;51.214;6.962;2023-05-10T10:05:58;44.47;;;20.97;;
42972;SDS011;28610;51.214;6.962;2023-05-10T10:08:45;41.73;;;20.50;;
42972;SDS011;28610;51.214;6.962;2023-05-10T10:11:31;40.20;;;19.83;;
42972;SDS011;28610;51.214;6.962;2023-05-10T10:14:17;36.90;;;19.33;;
42972;SDS011;28610;51.214;6.962;2023-05-10T10:17:03;42.37;;;20.70;;
42972;SDS011;28610;51.214;6.962;2023-05-10T10:19:49;37.57;;;19.73;;
42972;SDS011;28610;51.214;6.962;2023-05-10T10:22:35;33.20;;;17.50;;
42972;SDS011;28610;51.214;6.962;2023-05-10T10:25:23;36.40;;;18.13;;
42972;SDS011;28610;51.214;6.962;2023-05-10T10:28:11;31.27;;;16.80;;
42972;SDS011;28610;51.214;6.962;2023-05-10T10:31:02;33.60;;;17.97;;
42972;SDS011;28610;51.214;6.962;2023-05-10T10:33:51;33.50;;;17.87;;
42972;SDS011;28610;51.214;6.962;2023-05-10T10:36:39;35.80;;;17.53;;
42972;SDS011;28610;51.214;6.962;2023-05-10T10:39:26;34.53;;;17.43;;
42972;SDS011;28610;51.214;6.962;2023-05-10T10:42:13;33.73;;;16.60;;
42972;SDS011;28610;51.214;6.962;2023-05-10T10:45:10;34.93;;;17.30;;
42972;SDS011;28610;51.214;6.962;2023-05-10T10:51:01;33.73;;;17.30;;
42972;SDS011;28610;51.214;6.962;2023-05-10T10:53:47;29.37;;;16.70;;
42972;SDS011;28610;51.214;6.962;2023-05-10T10:56:33;35.53;;;17.37;;
42972;SDS011;28610;51.214;6.962;2023-05-10T10:59:27;33.80;;;18.03;;
42972;SDS011;28610;51.214;6.962;2023-05-10T11:05:24;32.67;;;16.00;;
42972;SDS011;28610;51.214;6.962;2023-05-10T11:08:11;30.00;;;15.90;;
42972;SDS011;28610;51.214;6.962;2023-05-10T11:11:03;27.87;;;15.67;;
42972;SDS011;28610;51.214;6.962;2023-05-10T11:13:51;26.42;;;15.38;;
42972;SDS011;28610;51.214;6.962;2023-05-10T11:16:42;23.67;;;13.63;;
42972;SDS011;28610;51.214;6.962;2023-05-10T11:19:28;29.52;;;15.23;;
42972;SDS011;28610;51.214;6.962;2023-05-10T11:22:13;29.27;;;14.88;;
42972;SDS011;28610;51.214;6.962;2023-05-10T11:25:00;29.10;;;15.23;;
42972;SDS011;28610;51.214;6.962;2023-05-10T11:27:47;29.20;;;13.87;;
42972;SDS011;28610;51.214;6.962;2023-05-10T11:30:33;31.10;;;14.90;;
42972;SDS011;28610;51.214;6.962;2023-05-10T11:33:20;27.70;;;15.10;;
42972;SDS011;28610;51.214;6.962;2023-05-10T11:36:05;27.50;;;14.67;;
42972;SDS011;28610;51.214;6.962;2023-05-10T11:38:55;27.23;;;14.57;;
42972;SDS011;28610;51.214;6.962;2023-05-10T11:41:41;28.83;;;15.57;;
42972;SDS011;28610;51.214;6.962;2023-05-10T11:44:28;32.53;;;16.27;;
42972;SDS011;28610;51.214;6.962;2023-05-10T11:47:14;32.03;;;16.33;;
42972;SDS011;28610;51.214;6.962;2023-05-10T11:50:01;30.50;;;16.40;;
42972;SDS011;28610;51.214;6.962;2023-05-10T11:52:49;31.03;;;16.27;;
42972;SDS011;28610;51.214;6.962;2023-05-10T11:55:35;35.00;;;18.50;;
42972;SDS011;28610;51.214;6.962;2023-05-10T11:58:21;32.47;;;17.17;;
42972;SDS011;28610;51.214;6.962;2023-05-10T12:01:07;34.17;;;18.23;;
42972;SDS011;28610;51.214;6.962;2023-05-10T12:03:54;36.57;;;19.03;;
42972;SDS011;28610;51.214;6.962;2023-05-10T12:06:43;37.83;;;20.27;;
42972;SDS011;28610;51.214;6.962;2023-05-10T12:09:30;35.67;;;20.00;;
42972;SDS011;28610;51.214;6.962;2023-05-10T12:12:16;36.20;;;20.13;;
42972;SDS011;28610;51.214;6.962;2023-05-10T12:15:02;37.63;;;18.93;;
42972;SDS011;28610;51.214;6.962;2023-05-10T12:17:48;36.87;;;19.63;;
42972;SDS011;28610;51.214;6.962;2023-05-10T12:20:34;37.30;;;19.02;;
42972;SDS011;28610;51.214;6.962;2023-05-10T12:23:21;34.70;;;19.83;;
42972;SDS011;28610;51.214;6.962;2023-05-10T12:26:08;36.35;;;19.55;;
42972;SDS011;28610;51.214;6.962;2023-05-10T12:28:54;33.58;;;18.00;;
42972;SDS011;28610;51.214;6.962;2023-05-10T12:31:53;31.50;;;17.95;;
42972;SDS011;28610;51.214;6.962;2023-05-10T12:34:39;32.03;;;18.17;;
42972;SDS011;28610;51.214;6.962;2023-05-10T12:37:27;30.88;;;18.35;;
42972;SDS011;28610;51.214;6.962;2023-05-10T12:40:14;31.42;;;18.30;;
42972;SDS011;28610;51.214;6.962;2023-05-10T12:43:00;31.98;;;16.75;;
42972;SDS011;28610;51.214;6.962;2023-05-10T12:45:46;27.95;;;16.30;;
42972;SDS011;28610;51.214;6.962;2023-05-10T12:48:32;27.40;;;16.13;;
42972;SDS011;28610;51.214;6.962;2023-05-10T12:51:18;26.90;;;15.85;;
42972;SDS011;28610;51.214;6.962;2023-05-10T12:54:05;31.20;;;16.47;;
42972;SDS011;28610;51.214;6.962;2023-05-10T12:56:52;30.83;;;17.20;;
42972;SDS011;28610;51.214;6.962;2023-05-10T12:59:38;31.88;;;17.98;;
42972;SDS011;28610;51.214;6.962;2023-05-10T13:02:24;32.15;;;18.25;;
42972;SDS011;28610;51.214;6.962;2023-05-10T13:05:09;30.88;;;18.33;;
42972;SDS011;28610;51.214;6.962;2023-05-10T13:07:56;33.90;;;18.63;;
42972;SDS011;28610;51.214;6.962;2023-05-10T13:10:42;29.50;;;16.70;;
42972;SDS011;28610;51.214;6.962;2023-05-10T13:13:29;35.57;;;20.27;;
42972;SDS011;28610;51.214;6.962;2023-05-10T13:16:14;34.67;;;19.17;;
42972;SDS011;28610;51.214;6.962;2023-05-10T13:19:00;41.03;;;21.20;;
42972;SDS011;28610;51.214;6.962;2023-05-10T13:21:46;44.97;;;24.33;;
42972;SDS011;28610;51.214;6.962;2023-05-10T13:24:32;54.70;;;26.37;;
42972;SDS011;28610;51.214;6.962;2023-05-10T13:27:17;54.10;;;26.07;;
42972;SDS011;28610;51.214;6.962;2023-05-10T13:30:05;49.20;;;26.40;;
42972;SDS011;28610;51.214;6.962;2023-05-10T13:32:51;47.37;;;24.93;;
42972;SDS011;28610;51.214;6.962;2023-05-10T13:35:37;50.43;;;26.00;;
42972;SDS011;28610;51.214;6.962;2023-05-10T13:38:23;49.53;;;25.17;;
42972;SDS011;28610;51.214;6.962;2023-05-10T13:41:09;48.67;;;25.63;;
42972;SDS011;28610;51.214;6.962;2023-05-10T13:43:55;43.63;;;23.87;;
42972;SDS011;28610;51.214;6.962;2023-05-10T13:46:42;50.27;;;25.40;;
42972;SDS011;28610;51.214;6.962;2023-05-10T13:49:27;45.10;;;23.43;;
42972;SDS011;28610;51.214;6.962;2023-05-10T13:52:13;46.90;;;24.87;;
42972;SDS011;28610;51.214;6.962;2023-05-10T13:54:59;47.43;;;24.93;;
42972;SDS011;28610;51.214;6.962;2023-05-10T13:57:44;39.90;;;23.07;;
42972;SDS011;28610;51.214;6.962;2023-05-10T14:00:30;45.00;;;22.57;;
42972;SDS011;28610;51.214;6.962;2023-05-10T14:03:17;42.97;;;23.10;;
42972;SDS011;28610;51.214;6.962;2023-05-10T14:06:03;40.53;;;22.13;;
42972;SDS011;28610;51.214;6.962;2023-05-10T14:08:49;35.10;;;20.58;;
42972;SDS011;28610;51.214;6.962;2023-05-10T14:11:35;38.45;;;20.20;;
42972;SDS011;28610;51.214;6.962;2023-05-10T14:14:20;39.00;;;21.48;;
42972;SDS011;28610;51.214;6.962;2023-05-10T14:17:06;47.80;;;25.33;;
42972;SDS011;28610;51.214;6.962;2023-05-10T14:19:53;43.28;;;23.45;;
42972;SDS011;28610;51.214;6.962;2023-05-10T14:22:38;49.60;;;24.13;;
42972;SDS011;28610;51.214;6.962;2023-05-10T14:25:24;43.55;;;22.85;;
42972;SDS011;28610;51.214;6.962;2023-05-10T14:28:10;43.80;;;21.98;;
42972;SDS011;28610;51.214;6.962;2023-05-10T14:30:56;45.05;;;23.63;;
42972;SDS011;28610;51.214;6.962;2023-05-10T14:33:42;44.60;;;22.80;;
42972;SDS011;28610;51.214;6.962;2023-05-10T14:36:29;46.72;;;23.33;;
42972;SDS011;28610;51.214;6.962;2023-05-10T14:39:15;41.60;;;22.52;;
42972;SDS011;28610;51.214;6.962;2023-05-10T14:42:01;42.97;;;23.00;;
42972;SDS011;28610;51.214;6.962;2023-05-10T14:44:47;47.42;;;24.08;;
42972;SDS011;28610;51.214;6.962;2023-05-10T14:47:33;49.43;;;25.13;;
42972;SDS011;28610;51.214;6.962;2023-05-10T14:50:18;47.57;;;24.10;;
42972;SDS011;28610;51.214;6.962;2023-05-10T14:53:05;48.20;;;24.17;;
42972;SDS011;28610;51.214;6.962;2023-05-10T14:55:51;38.03;;;18.93;;
42972;SDS011;28610;51.214;6.962;2023-05-10T14:58:36;30.67;;;15.40;;
42972;SDS011;28610;51.214;6.962;2023-05-10T15:01:22;30.95;;;15.00;;
42972;SDS011;28610;51.214;6.962;2023-05-10T15:04:08;23.07;;;13.90;;
42972;SDS011;28610;51.214;6.962;2023-05-10T15:06:53;23.08;;;11.95;;
42972;SDS011;28610;51.214;6.962;2023-05-10T15:09:44;23.80;;;12.70;;
42972;SDS011;28610;51.214;6.962;2023-05-10T15:12:29;22.20;;;11.73;;
42972;SDS011;28610;51.214;6.962;2023-05-10T15:15:15;21.97;;;12.63;;
42972;SDS011;28610;51.214;6.962;2023-05-10T15:18:00;24.08;;;12.85;;
42972;SDS011;28610;51.214;6.962;2023-05-10T15:20:46;21.95;;;12.43;;
42972;SDS011;28610;51.214;6.962;2023-05-10T15:23:32;22.43;;;12.70;;
42972;SDS011;28610;51.214;6.962;2023-05-10T15:26:18;23.38;;;13.30;;
42972;SDS011;28610;51.214;6.962;2023-05-10T15:29:05;24.63;;;12.50;;
42972;SDS011;28610;51.214;6.962;2023-05-10T15:31:51;22.83;;;12.10;;
42972;SDS011;28610;51.214;6.962;2023-05-10T15:34:36;21.33;;;11.83;;
42972;SDS011;28610;51.214;6.962;2023-05-10T15:37:22;22.00;;;11.70;;
42972;SDS011;28610;51.214;6.962;2023-05-10T15:40:08;24.63;;;12.30;;
42972;SDS011;28610;51.214;6.962;2023-05-10T15:42:55;21.45;;;12.05;;
42972;SDS011;28610;51.214;6.962;2023-05-10T15:45:40;23.23;;;12.02;;
42972;SDS011;28610;51.214;6.962;2023-05-10T15:48:26;24.63;;;13.20;;
42972;SDS011;28610;51.214;6.962;2023-05-10T15:51:14;22.13;;;12.57;;
42972;SDS011;28610;51.214;6.962;2023-05-10T15:54:00;23.48;;;12.73;;
42972;SDS011;28610;51.214;6.962;2023-05-10T15:56:46;21.70;;;11.32;;
42972;SDS011;28610;51.214;6.962;2023-05-10T15:59:33;21.38;;;11.68;;
42972;SDS011;28610;51.214;6.962;2023-05-10T16:02:20;23.25;;;11.77;;
42972;SDS011;28610;51.214;6.962;2023-05-10T16:05:06;19.52;;;11.07;;
42972;SDS011;28610;51.214;6.962;2023-05-10T16:07:52;19.88;;;10.85;;
42972;SDS011;28610;51.214;6.962;2023-05-10T16:10:38;20.08;;;11.20;;
42972;SDS011;28610;51.214;6.962;2023-05-10T16:13:24;17.63;;;10.43;;
42972;SDS011;28610;51.214;6.962;2023-05-10T16:16:11;21.35;;;10.57;;
42972;SDS011;28610;51.214;6.962;2023-05-10T16:18:57;19.92;;;10.50;;